createdAt,value
2022-08-28T00:02:07.662Z,19.80
2022-08-28T00:04:35.839Z,19.80
2022-08-28T00:07:02.954Z,19.70
2022-08-28T00:09:29.767Z,19.80
2022-08-28T00:11:56.745Z,19.70
2022-08-28T04:01:55.199Z,19.20
2022-08-28T04:04:27.839Z,19.30
2022-08-28T04:06:54.611Z,19.20
2022-08-28T04:26:53.597Z,19.10
2022-08-28T08:34:45.722Z,20.80
2022-08-28T08:37:15.474Z,20.50
2022-08-28T08:39:43.188Z,20.60
2022-08-28T08:42:26.491Z,20.50
2022-08-28T08:44:56.111Z,20.50
2022-08-28T08:47:41.850Z,20.60
2022-08-28T08:50:20.889Z,20.70
2022-08-28T08:52:57.366Z,20.80
2022-08-28T08:55:35.449Z,20.90
2022-08-28T08:58:19.983Z,20.90
2022-08-28T09:03:44.309Z,20.90
2022-08-28T09:07:00.431Z,20.70
2022-08-28T09:09:37.031Z,20.70
2022-08-28T09:12:09.416Z,20.60
2022-08-28T09:15:05.409Z,20.70
2022-08-28T09:17:41.410Z,20.80
2022-08-28T09:20:14.944Z,20.60
2022-08-28T09:22:47.862Z,20.90
2022-08-28T09:25:47.532Z,21.10
2022-08-28T09:28:27.211Z,21.10
2022-08-28T09:49:30.909Z,21.50
2022-08-28T09:51:59.577Z,21.50
2022-08-28T09:54:33.175Z,21.50
2022-08-28T09:57:01.185Z,21.30
2022-08-28T09:59:29.130Z,21.30
2022-08-28T10:02:01.989Z,21.30
2022-08-28T10:13:02.312Z,21.20
2022-08-28T10:18:15.430Z,21.50
2022-08-28T10:21:01.191Z,21.60
2022-08-28T10:23:39.689Z,21.70
2022-08-28T10:26:34.767Z,21.90
2022-08-28T10:29:06.285Z,22.00
2022-08-28T10:31:44.996Z,22.00
2022-08-28T10:34:42.032Z,21.90
2022-08-28T10:37:14.582Z,21.80
2022-08-28T10:40:08.828Z,21.80
2022-08-28T10:42:42.973Z,22.10
2022-08-28T10:45:26.616Z,22.30
2022-08-28T10:48:19.793Z,22.40
2022-08-28T10:51:07.343Z,22.40
2022-08-28T10:53:37.178Z,22.30
2022-08-28T10:56:08.957Z,22.30
2022-08-28T10:58:42.528Z,22.20
2022-08-28T11:01:24.763Z,22.40
2022-08-28T11:03:52.602Z,22.50
2022-08-28T11:06:38.038Z,22.60
2022-08-28T11:09:29.269Z,22.50
2022-08-28T11:12:02.069Z,22.50
2022-08-28T11:14:29.802Z,22.30
2022-08-28T11:17:22.730Z,22.20
2022-08-28T11:19:58.075Z,22.30
2022-08-28T11:22:34.186Z,22.30
2022-08-28T11:25:42.985Z,22.50
2022-08-28T11:28:24.825Z,22.30
2022-08-28T11:31:03.841Z,22.10
2022-08-28T11:33:39.472Z,22.00
2022-08-28T11:36:25.351Z,22.10
2022-08-28T11:38:52.116Z,22.00
2022-08-28T11:41:31.786Z,22.00
2022-08-28T11:44:13.578Z,22.10
2022-08-28T11:46:44.830Z,22.40
2022-08-28T11:49:31.850Z,22.60
2022-08-28T11:52:23.565Z,22.60
2022-08-28T11:54:56.657Z,22.40
2022-08-28T11:57:51.057Z,22.40
2022-08-28T12:00:28.884Z,22.30
2022-08-28T12:03:13.700Z,22.40
2022-08-28T12:05:46.993Z,22.30
2022-08-28T12:08:56.722Z,22.30
2022-08-28T12:11:41.882Z,22.30
2022-08-28T12:14:34.927Z,22.40
2022-08-28T12:17:01.625Z,22.50
2022-08-28T12:19:43.012Z,22.40
2022-08-28T12:22:22.611Z,22.40
2022-08-28T12:25:01.774Z,22.40
2022-08-28T12:27:32.130Z,22.40
2022-08-28T12:30:05.450Z,22.40
2022-08-28T12:32:59.671Z,22.50
2022-08-28T12:35:29.853Z,22.50
2022-08-28T12:37:57.308Z,22.60
2022-08-28T12:40:50.772Z,22.80
2022-08-28T12:43:34.879Z,22.80
2022-08-28T12:46:06.915Z,22.90
2022-08-28T12:51:38.901Z,23.00
2022-08-28T12:54:08.206Z,23.00
2022-08-28T12:56:38.360Z,22.90
2022-08-28T12:59:36.159Z,22.90
2022-08-28T13:02:28.332Z,22.90
2022-08-28T13:05:04.949Z,22.90
2022-08-28T13:07:38.174Z,23.20
2022-08-28T13:10:24.423Z,23.40
2022-08-28T13:13:05.373Z,23.60
2022-08-28T13:15:57.854Z,23.60
2022-08-28T13:19:04.032Z,23.70
2022-08-28T13:21:35.147Z,23.80
2022-08-28T13:24:22.067Z,23.70
2022-08-28T13:27:22.868Z,23.60
2022-08-28T13:30:08.038Z,23.60
2022-08-28T13:32:38.996Z,23.60
2022-08-28T13:37:55.431Z,24.20
2022-08-28T13:40:55.679Z,24.40
2022-08-28T13:43:15.867Z,24.60
2022-08-28T13:45:48.169Z,24.60
2022-08-28T13:48:27.054Z,24.90
2022-08-28T13:50:59.980Z,25.00
2022-08-28T13:53:28.919Z,25.10
2022-08-28T13:55:56.218Z,24.80
2022-08-28T13:58:23.340Z,24.60
2022-08-28T14:00:53.549Z,24.70
2022-08-28T14:03:36.230Z,24.80
2022-08-28T14:06:11.529Z,25.10
2022-08-28T14:08:43.288Z,25.30
2022-08-28T14:11:13.004Z,25.70
2022-08-28T14:13:40.698Z,25.50
2022-08-28T14:16:16.708Z,25.10
2022-08-28T14:18:43.672Z,25.20
2022-08-28T14:21:10.380Z,25.00
2022-08-28T14:23:39.328Z,25.30
2022-08-28T14:26:06.273Z,25.80
2022-08-28T14:28:37.881Z,26.50
2022-08-28T14:31:08.153Z,26.50
2022-08-28T14:33:40.059Z,26.30
2022-08-28T14:36:20.982Z,26.30
2022-08-28T14:41:18.085Z,25.80
2022-08-28T14:43:45.360Z,26.00
2022-08-28T14:46:17.158Z,26.10
2022-08-28T14:48:46.595Z,26.20
2022-08-28T14:51:20.095Z,26.00
2022-08-28T14:53:46.899Z,27.00
2022-08-28T14:56:15.896Z,28.50
2022-08-28T14:58:42.841Z,29.40
2022-08-28T15:01:09.723Z,29.20
2022-08-28T15:06:06.873Z,27.40
2022-08-28T15:08:35.164Z,26.80
2022-08-28T15:11:16.543Z,27.20
2022-08-28T15:13:48.119Z,28.00
2022-08-28T15:16:20.438Z,28.90
2022-08-28T15:18:50.192Z,28.90
2022-08-28T15:21:35.354Z,28.50
2022-08-28T15:24:03.885Z,29.10
2022-08-28T15:26:34.015Z,29.80
2022-08-28T15:29:04.185Z,30.10
2022-08-28T15:31:33.399Z,29.50
2022-08-28T15:36:36.574Z,28.10
2022-08-28T15:44:17.110Z,29.30
2022-08-28T15:46:55.627Z,30.00
2022-08-28T15:51:50.982Z,30.00
2022-08-28T15:54:18.479Z,29.90
2022-08-28T16:01:48.202Z,26.40
2022-08-28T16:04:17.896Z,25.90
2022-08-28T16:06:45.265Z,25.40
2022-08-28T16:09:12.230Z,25.20
2022-08-28T16:11:42.516Z,24.80
2022-08-28T16:14:10.261Z,24.50
2022-08-28T16:16:39.995Z,24.40
2022-08-28T16:19:13.392Z,24.30
2022-08-28T16:21:40.158Z,24.20
2022-08-28T16:24:09.826Z,24.10
2022-08-28T16:26:39.516Z,24.00
2022-08-28T16:29:08.527Z,23.90
2022-08-28T16:31:35.788Z,23.80
2022-08-28T16:34:05.646Z,23.50
2022-08-28T16:36:38.254Z,23.50
2022-08-28T16:39:10.746Z,23.50
2022-08-28T16:41:39.039Z,23.50
2022-08-28T16:44:05.854Z,23.50
2022-08-28T16:46:32.797Z,23.60
2022-08-28T16:48:59.721Z,23.70
2022-08-28T16:51:29.653Z,23.70
2022-08-28T16:53:59.175Z,23.50
2022-08-28T16:56:26.549Z,23.50
2022-08-28T16:58:53.500Z,23.40
2022-08-28T17:01:25.515Z,23.30
2022-08-28T17:03:54.488Z,23.20
2022-08-28T17:06:25.748Z,23.30
2022-08-28T17:08:56.701Z,23.20
2022-08-28T17:11:31.035Z,23.20
2022-08-28T17:14:01.092Z,23.20
2022-08-28T17:16:34.760Z,23.20
2022-08-28T17:19:01.642Z,23.20
2022-08-28T17:22:07.879Z,23.10
2022-08-28T17:24:36.892Z,23.10
2022-08-28T17:27:05.837Z,23.00
2022-08-28T17:29:34.619Z,23.10
2022-08-28T17:32:01.388Z,23.10
2022-08-28T17:34:30.784Z,23.10
2022-08-28T17:36:59.648Z,23.10
2022-08-28T17:39:29.441Z,23.00
2022-08-28T17:42:01.171Z,22.80
2022-08-28T17:44:28.176Z,22.90
2022-08-28T17:46:55.178Z,22.80
2022-08-28T17:49:22.646Z,22.90
2022-08-28T17:51:49.698Z,22.90
2022-08-28T17:54:21.463Z,22.80
2022-08-28T17:56:48.852Z,22.80
2022-08-28T17:59:17.782Z,22.80
2022-08-28T18:01:46.459Z,22.80
2022-08-28T18:04:17.882Z,22.80
2022-08-28T18:06:47.070Z,22.70
2022-08-28T18:09:14.671Z,22.70
2022-08-28T18:11:41.884Z,22.70
2022-08-28T18:14:10.974Z,22.70
2022-08-28T18:19:09.588Z,22.40
2022-08-28T18:21:37.574Z,22.30
2022-08-28T18:24:05.329Z,22.30
2022-08-28T18:26:32.167Z,22.30
2022-08-28T18:28:59.357Z,22.30
2022-08-28T18:31:28.586Z,22.30
2022-08-28T18:33:55.494Z,22.20
2022-08-28T18:36:23.198Z,22.20
2022-08-28T18:38:50.475Z,22.20
2022-08-28T18:41:17.698Z,22.20
2022-08-28T18:43:44.423Z,22.20
2022-08-28T18:48:42.649Z,22.00
2022-08-28T18:51:11.472Z,22.00
2022-08-28T18:53:38.981Z,22.00
2022-08-28T18:56:09.247Z,21.90
2022-08-28T18:58:39.372Z,21.90
2022-08-28T19:01:09.282Z,21.90
2022-08-28T19:03:38.219Z,21.90
2022-08-28T19:06:06.338Z,21.90
2022-08-28T19:08:37.720Z,21.80
2022-08-28T19:11:12.664Z,21.70
2022-08-28T19:13:41.599Z,21.70
2022-08-28T19:16:09.383Z,21.70
2022-08-28T19:18:36.479Z,21.60
2022-08-28T19:21:16.440Z,21.60
2022-08-28T19:23:55.231Z,21.50
2022-08-28T19:26:24.496Z,21.40
2022-08-28T19:28:51.512Z,21.40
2022-08-28T19:31:18.660Z,21.30
2022-08-28T19:36:14.300Z,21.20
2022-08-28T19:38:41.644Z,21.10
2022-08-28T19:41:12.879Z,21.10
2022-08-28T19:43:42.870Z,21.00
2022-08-28T19:46:18.591Z,20.90
2022-08-28T19:48:48.679Z,20.90
2022-08-28T19:51:23.164Z,20.90
2022-08-28T19:53:56.757Z,20.80
2022-08-28T19:56:27.238Z,20.80
2022-08-28T20:01:21.700Z,20.70
2022-08-28T20:06:15.693Z,20.60
2022-08-28T20:08:44.665Z,20.60
2022-08-28T20:46:01.632Z,19.40
2022-08-28T20:48:33.332Z,19.50
2022-08-28T20:51:03.285Z,19.40
2022-08-28T20:53:37.331Z,19.40
2022-08-28T20:56:07.871Z,19.40
2022-08-28T20:58:36.906Z,19.40
2022-08-28T21:01:05.638Z,19.40
2022-08-28T21:03:35.409Z,19.40
2022-08-28T21:06:04.270Z,19.40
2022-08-28T21:08:31.059Z,19.30
2022-08-28T21:11:00.333Z,19.30
2022-08-28T21:13:31.713Z,19.20
2022-08-28T21:15:58.442Z,19.20
2022-08-28T21:18:28.229Z,19.20
2022-08-28T21:20:55.428Z,19.10
2022-08-28T21:23:23.327Z,19.00
2022-08-28T21:25:50.275Z,19.10
2022-08-28T21:28:19.230Z,19.10
2022-08-28T21:30:46.030Z,19.10
2022-08-28T21:33:12.885Z,19.10
2022-08-28T21:35:45.151Z,19.00
2022-08-28T21:38:11.879Z,18.90
2022-08-28T21:40:41.223Z,18.90
2022-08-28T21:43:10.228Z,18.70
2022-08-28T21:45:39.674Z,18.70
2022-08-28T21:48:06.403Z,18.70
2022-08-28T21:50:35.722Z,18.70
2022-08-28T21:53:05.175Z,18.70
2022-08-28T21:55:31.941Z,18.60
2022-08-28T21:57:58.633Z,18.50
2022-08-28T22:00:25.433Z,18.40
2022-08-28T22:02:52.608Z,18.40
2022-08-28T22:05:19.986Z,18.30
2022-08-28T22:07:46.807Z,18.40
2022-08-28T22:10:14.069Z,18.40
2022-08-28T22:12:40.828Z,18.30
2022-08-28T22:15:10.509Z,18.20
2022-08-28T22:17:37.176Z,18.20
2022-08-28T22:20:04.871Z,18.20
2022-08-28T22:22:52.562Z,18.20
2022-08-28T22:25:21.844Z,18.20
2022-08-28T22:27:49.652Z,18.20
2022-08-28T22:30:16.817Z,18.10
2022-08-28T22:32:45.973Z,18.10
2022-08-28T22:35:12.811Z,18.00
2022-08-28T22:37:39.560Z,17.90
2022-08-28T22:40:09.696Z,17.90
2022-08-28T22:42:43.403Z,18.00
2022-08-28T22:45:12.891Z,17.90
2022-08-28T22:47:39.880Z,18.00
2022-08-28T22:50:07.020Z,17.90
2022-08-28T22:52:33.754Z,17.90
2022-08-28T22:55:00.513Z,17.90
2022-08-28T22:57:27.413Z,17.70
2022-08-28T22:59:54.368Z,17.60
2022-08-28T23:02:27.216Z,17.60
2022-08-28T23:04:54.434Z,17.70
2022-08-28T23:07:23.701Z,17.60
2022-08-28T23:09:50.440Z,17.60
2022-08-28T23:12:17.467Z,17.50
2022-08-28T23:14:48.573Z,17.50
2022-08-28T23:17:16.991Z,17.50
2022-08-28T23:19:43.841Z,17.60
2022-08-28T23:22:13.460Z,17.70
2022-08-28T23:24:42.980Z,17.70
2022-08-28T23:27:34.585Z,17.60
2022-08-28T23:29:58.848Z,17.60
2022-08-28T23:32:27.995Z,17.60
2022-08-28T23:34:55.139Z,17.60
2022-08-28T23:37:21.910Z,17.60
2022-08-28T23:39:49.357Z,17.50
2022-08-28T23:42:16.288Z,17.40
2022-08-28T23:44:43.142Z,17.50
2022-08-28T23:47:12.404Z,17.40
2022-08-28T23:49:42.753Z,17.30
2022-08-28T23:52:10.100Z,17.20
2022-08-28T23:54:36.857Z,17.20
2022-08-28T23:57:06.545Z,17.20
2022-08-28T23:59:33.733Z,17.20
